Time;durP1;ratioP1;P1;durP2;ratioP2;P2;SDS_P1;SDS_P2;PMS_P1;PMS_P2;Temp;Humidity;BMP_temperature;BMP_pressure;BME280_temperature;BME280_humidity;BME280_pressure;Samples;Min_cycle;Max_cycle;Signal;HPM_P1;HPM_P2
2023/08/27 10:44:08;;;;;;;36.22;3.30;;;19.90;99.90;;;;;;5087606;28;20407;-76
2023/08/27 10:48:12;;;;;;;1.73;0.77;;;22.30;99.90;;;;;;5107851;27;20149;-70
2023/08/27 10:50:48;;;;;;;0.55;0.55;;;22.00;99.90;;;;;;5107325;28;20042;-70
2023/08/27 10:53:18;;;;;;;1.13;0.73;;;21.50;99.90;;;;;;5176076;22;20048;-70
2023/08/27 10:55:51;;;;;;;2.13;1.05;;;21.10;99.90;;;;;;5070070;28;20143;-70
2023/08/27 10:58:25;;;;;;;1.10;0.80;;;20.70;99.90;;;;;;5053663;28;20912;-70
2023/08/27 11:01:09;;;;;;;3.58;1.10;;;20.50;99.90;;;;;;5068055;28;20032;-70
2023/08/27 11:06:17;;;;;;;2.33;1.13;;;20.10;99.90;;;;;;5118338;23;20059;-71
2023/08/27 11:08:43;;;;;;;1.42;1.00;;;20.00;99.90;;;;;;5082894;28;20135;-71
2023/08/27 11:11:16;;;;;;;1.70;1.00;;;20.00;99.90;;;;;;5098755;28;20019;-72
2023/08/27 11:13:42;;;;;;;1.77;1.02;;;20.00;99.90;;;;;;5086675;28;20031;-71
2023/08/27 11:16:17;;;;;;;3.38;1.10;;;20.10;99.90;;;;;;5081491;28;20028;-70
2023/08/27 11:18:46;;;;;;;2.40;1.10;;;20.10;99.90;;;;;;5067819;28;20031;-71
2023/08/27 11:21:40;;;;;;;1.60;1.00;;;20.10;99.90;;;;;;5086762;28;20032;-71
2023/08/27 11:24:15;;;;;;;1.20;0.85;;;20.10;99.90;;;;;;5086424;28;20282;-71
2023/08/27 11:26:42;;;;;;;1.38;0.90;;;20.10;99.90;;;;;;5073709;28;20059;-71
2023/08/27 11:29:09;;;;;;;2.38;1.05;;;20.00;99.90;;;;;;5059722;28;20033;-71
2023/08/27 11:31:37;;;;;;;2.88;0.90;;;19.90;99.90;;;;;;5074027;28;20029;-71
2023/08/27 11:34:04;;;;;;;3.05;1.17;;;19.80;99.90;;;;;;5072348;28;20059;-70
2023/08/27 11:36:30;;;;;;;6.13;2.08;;;19.70;99.90;;;;;;5075688;28;20024;-71
2023/08/27 11:38:59;;;;;;;7.07;2.15;;;19.40;99.90;;;;;;5073344;28;20028;-73
2023/08/27 11:41:25;;;;;;;7.28;2.33;;;19.10;99.90;;;;;;5059437;28;20036;-72
2023/08/27 11:43:53;;;;;;;4.47;1.90;;;18.50;99.90;;;;;;5069236;28;20600;-72
2023/08/27 11:46:22;;;;;;;5.78;1.55;;;18.10;99.90;;;;;;5086580;28;20032;-72
2023/08/27 11:48:48;;;;;;;3.97;1.63;;;17.70;99.90;;;;;;5067831;28;20020;-72
2023/08/27 11:51:17;;;;;;;3.40;1.70;;;17.40;99.90;;;;;;5054963;28;20024;-71
2023/08/27 11:53:44;;;;;;;2.53;1.60;;;17.20;99.90;;;;;;5085183;28;20028;-71
2023/08/27 11:56:11;;;;;;;3.33;1.60;;;16.90;99.90;;;;;;5083020;28;20020;-71
2023/08/27 11:58:39;;;;;;;2.72;1.63;;;16.70;99.90;;;;;;5072565;28;20094;-71
2023/08/27 12:01:06;;;;;;;3.58;1.52;;;16.60;99.90;;;;;;5066391;28;20074;-71
2023/08/27 12:03:32;;;;;;;3.40;1.45;;;16.60;99.90;;;;;;5064997;28;20036;-71
2023/08/27 12:05:58;;;;;;;4.38;2.30;;;16.50;99.90;;;;;;5067956;28;20047;-71
2023/08/27 12:08:24;;;;;;;6.00;2.08;;;16.60;99.90;;;;;;5069353;28;20024;-71
2023/08/27 12:10:50;;;;;;;3.58;1.70;;;16.60;99.90;;;;;;5062385;28;20052;-71
2023/08/27 12:13:15;;;;;;;3.33;1.88;;;16.60;99.90;;;;;;5076660;28;20024;-71
2023/08/27 12:15:42;;;;;;;2.05;1.55;;;16.50;99.90;;;;;;5075532;28;20020;-71
2023/08/27 12:18:08;;;;;;;2.05;1.38;;;16.50;99.90;;;;;;5048734;28;20016;-71
2023/08/27 12:20:36;;;;;;;4.13;1.52;;;16.50;99.90;;;;;;5066965;28;20383;-71
2023/08/27 12:23:12;;;;;;;2.45;1.33;;;16.50;99.90;;;;;;5073772;28;20048;-71
2023/08/27 12:25:48;;;;;;;2.90;1.67;;;16.50;99.90;;;;;;5068183;28;20044;-71
2023/08/27 12:28:18;;;;;;;1.98;1.50;;;16.50;99.90;;;;;;5068807;28;20024;-71
2023/08/27 12:30:50;;;;;;;1.52;1.40;;;16.50;99.90;;;;;;5062185;28;20059;-71
2023/08/27 12:33:16;;;;;;;2.95;1.60;;;16.50;99.90;;;;;;5065822;28;20010;-73
2023/08/27 12:35:49;;;;;;;3.70;1.83;;;16.40;99.90;;;;;;5042570;28;20465;-73
2023/08/27 12:38:15;;;;;;;3.20;1.83;;;16.40;99.90;;;;;;5058158;28;20033;-73
2023/08/27 12:40:40;;;;;;;2.72;1.92;;;16.50;99.90;;;;;;5048152;28;20390;-73
2023/08/27 12:43:06;;;;;;;2.67;1.70;;;16.60;99.90;;;;;;5062068;28;20051;-73
2023/08/27 12:45:31;;;;;;;2.63;1.70;;;16.70;99.90;;;;;;5048959;28;20568;-73
2023/08/27 12:48:05;;;;;;;1.38;1.27;;;16.80;99.90;;;;;;5049887;28;20028;-73
2023/08/27 12:50:31;;;;;;;2.33;1.70;;;16.70;99.90;;;;;;5077200;28;20565;-73
2023/08/27 12:52:57;;;;;;;2.00;1.50;;;16.70;99.90;;;;;;5079298;28;20042;-73
2023/08/27 12:55:23;;;;;;;1.73;1.17;;;16.70;99.90;;;;;;5070097;28;20505;-73
2023/08/27 12:57:49;;;;;;;2.78;1.52;;;16.50;99.90;;;;;;5058632;28;20047;-73
2023/08/27 13:00:14;;;;;;;4.72;1.50;;;16.50;99.90;;;;;;5070356;28;20040;-72
2023/08/27 13:02:40;;;;;;;1.48;1.33;;;16.40;99.90;;;;;;5072380;28;20017;-72
2023/08/27 13:05:06;;;;;;;2.42;1.55;;;16.30;99.90;;;;;;5040147;28;20052;-73
2023/08/27 13:07:31;;;;;;;2.22;1.20;;;16.30;99.90;;;;;;5070493;28;20524;-72
2023/08/27 13:09:57;;;;;;;1.45;1.17;;;16.40;99.90;;;;;;5060236;28;20028;-73
2023/08/27 13:12:23;;;;;;;1.48;1.17;;;16.40;99.90;;;;;;5054128;28;20036;-73
2023/08/27 13:14:49;;;;;;;1.20;0.98;;;16.40;99.90;;;;;;5048842;28;20017;-72
2023/08/27 13:17:14;;;;;;;3.35;1.17;;;16.40;99.90;;;;;;5068268;28;20116;-73
2023/08/27 13:19:40;;;;;;;1.23;1.00;;;16.40;99.90;;;;;;5062858;28;20029;-73
2023/08/27 13:22:06;;;;;;;0.88;0.88;;;16.50;99.90;;;;;;5049292;28;20086;-70
2023/08/27 13:24:31;;;;;;;1.40;0.95;;;16.50;99.90;;;;;;5046954;28;20021;-71
2023/08/27 13:26:57;;;;;;;1.15;0.98;;;16.60;99.90;;;;;;5058315;28;20047;-71
2023/08/27 13:29:23;;;;;;;1.25;1.10;;;16.70;99.90;;;;;;5033136;28;20021;-71
2023/08/27 13:31:56;;;;;;;1.48;0.93;;;16.80;99.90;;;;;;5053764;28;20069;-72
2023/08/27 13:34:23;;;;;;;0.82;0.80;;;17.00;99.90;;;;;;5052377;28;20025;-71
2023/08/27 13:36:50;;;;;;;0.77;0.50;;;17.10;99.90;;;;;;5056584;28;20108;-71
2023/08/27 13:39:15;;;;;;;1.38;0.73;;;17.20;99.90;;;;;;5032641;28;20057;-71
2023/08/27 13:41:41;;;;;;;0.93;0.52;;;17.30;99.90;;;;;;5050253;28;20029;-71
2023/08/27 13:44:07;;;;;;;0.63;0.45;;;17.30;99.90;;;;;;5052911;28;20021;-71
2023/08/27 13:46:33;;;;;;;1.00;0.60;;;17.40;99.90;;;;;;5052492;28;20025;-71
2023/08/27 13:48:59;;;;;;;0.70;0.50;;;17.50;99.90;;;;;;5056287;28;20044;-71
2023/08/27 13:51:25;;;;;;;2.20;0.70;;;17.60;99.90;;;;;;5040330;28;20111;-73
2023/08/27 13:53:50;;;;;;;1.42;0.70;;;17.60;99.90;;;;;;5055454;28;20332;-71
2023/08/27 13:56:16;;;;;;;0.85;0.70;;;17.70;99.90;;;;;;5064841;28;20024;-73
2023/08/27 13:58:44;;;;;;;1.42;1.13;;;17.70;99.90;;;;;;5058908;28;20025;-71
2023/08/27 14:08:56;;;;;;;0.73;0.60;;;18.00;99.90;;;;;;5074397;28;20036;-71
2023/08/27 14:11:22;;;;;;;0.82;0.77;;;18.10;99.90;;;;;;5058805;28;20020;-71
2023/08/27 14:13:48;;;;;;;1.20;1.00;;;18.20;99.90;;;;;;5068786;28;20064;-71
2023/08/27 14:16:14;;;;;;;1.55;1.30;;;18.30;99.90;;;;;;5083279;28;20065;-71
2023/08/27 14:18:40;;;;;;;2.95;1.27;;;18.30;99.90;;;;;;5083394;28;20020;-71
2023/08/27 14:21:06;;;;;;;1.38;1.27;;;18.40;99.90;;;;;;5050709;28;20103;-71
2023/08/27 14:23:32;;;;;;;1.08;1.00;;;18.40;99.90;;;;;;5056967;28;20123;-71
2023/08/27 14:25:57;;;;;;;1.90;1.30;;;18.40;99.90;;;;;;5049986;28;20162;-71
2023/08/27 14:28:23;;;;;;;1.67;1.25;;;18.40;99.90;;;;;;5064489;28;20549;-70
2023/08/27 14:30:49;;;;;;;1.45;1.00;;;18.50;99.90;;;;;;5051381;28;20033;-70
2023/08/27 14:33:14;;;;;;;1.40;1.08;;;18.50;99.90;;;;;;5062592;28;20024;-69
2023/08/27 14:35:40;;;;;;;1.40;1.10;;;18.60;99.90;;;;;;5056077;28;20489;-71
2023/08/27 14:38:06;;;;;;;1.65;1.23;;;18.70;99.90;;;;;;5058840;28;20032;-71
2023/08/27 14:40:31;;;;;;;1.92;1.30;;;18.70;99.90;;;;;;5053625;28;20019;-71
2023/08/27 14:42:57;;;;;;;1.77;1.33;;;18.70;99.90;;;;;;5068024;28;20036;-71
2023/08/27 14:45:23;;;;;;;1.63;1.25;;;18.70;99.90;;;;;;5047055;28;20021;-71
2023/08/27 14:47:50;;;;;;;1.73;1.50;;;18.60;99.90;;;;;;5036162;28;20405;-71
2023/08/27 14:50:18;;;;;;;1.55;1.30;;;18.60;99.90;;;;;;5031811;28;20107;-71
2023/08/27 14:52:44;;;;;;;7.07;2.35;;;18.50;99.90;;;;;;5054086;28;20039;-71
2023/08/27 14:55:10;;;;;;;1.65;1.10;;;18.50;99.90;;;;;;5049754;28;20021;-71
2023/08/27 14:57:35;;;;;;;1.65;1.40;;;18.40;99.90;;;;;;5054560;28;20021;-70
2023/08/27 15:00:01;;;;;;;3.15;1.60;;;18.40;99.90;;;;;;5031818;28;20371;-71
2023/08/27 15:02:27;;;;;;;3.28;1.73;;;18.40;99.90;;;;;;5050194;28;20530;-71
2023/08/27 15:04:53;;;;;;;6.45;1.65;;;18.40;99.90;;;;;;5043515;28;20324;-71
2023/08/27 15:07:18;;;;;;;2.63;1.48;;;18.30;99.90;;;;;;5036943;28;20517;-71
2023/08/27 15:09:45;;;;;;;2.75;1.65;;;18.30;99.90;;;;;;5059380;28;20029;-71
2023/08/27 15:12:18;;;;;;;3.13;1.60;;;18.30;99.90;;;;;;5054885;28;20014;-71
2023/08/27 15:14:45;;;;;;;2.65;1.55;;;18.40;99.90;;;;;;5060540;28;20082;-71
2023/08/27 15:17:10;;;;;;;1.55;1.30;;;18.40;99.90;;;;;;5049693;28;20032;-71
2023/08/27 15:19:36;;;;;;;1.95;1.45;;;18.40;99.90;;;;;;5034457;28;20029;-70
2023/08/27 15:22:02;;;;;;;2.15;0.90;;;18.50;99.90;;;;;;5049759;28;20032;-70
2023/08/27 15:24:28;;;;;;;1.52;0.90;;;18.40;99.90;;;;;;5050055;28;20104;-71
2023/08/27 15:26:54;;;;;;;0.80;0.80;;;18.50;99.90;;;;;;5055329;28;20039;-71
2023/08/27 15:29:19;;;;;;;2.35;1.05;;;18.50;99.90;;;;;;5031838;28;20120;-71
2023/08/27 15:31:45;;;;;;;3.42;1.00;;;18.50;99.90;;;;;;5049164;28;20416;-71
2023/08/27 15:34:12;;;;;;;3.70;1.08;;;18.50;99.90;;;;;;5052791;28;20025;-71
2023/08/27 15:36:38;;;;;;;2.25;1.30;;;18.40;99.90;;;;;;5065596;28;20107;-71
2023/08/27 15:39:04;;;;;;;1.83;1.33;;;18.40;99.90;;;;;;5042025;28;20109;-71
2023/08/27 15:41:30;;;;;;;3.17;1.33;;;18.30;99.90;;;;;;5151483;22;20021;-71
2023/08/27 15:43:59;;;;;;;2.65;1.50;;;18.20;99.90;;;;;;5060067;28;20032;-71
2023/08/27 15:46:27;;;;;;;1.50;1.20;;;18.10;99.90;;;;;;5058330;28;20013;-71
2023/08/27 15:48:53;;;;;;;2.30;1.55;;;18.00;99.90;;;;;;5061080;28;20035;-71
2023/08/27 15:51:20;;;;;;;2.25;1.50;;;18.00;99.90;;;;;;5025744;28;20096;-71
2023/08/27 15:56:21;;;;;;;1.90;1.30;;;17.80;99.90;;;;;;5030998;22;19941;-71
2023/08/27 15:58:48;;;;;;;2.67;1.77;;;17.80;99.90;;;;;;5006524;28;20026;-70
2023/08/27 16:01:13;;;;;;;3.90;1.90;;;17.80;99.90;;;;;;4995105;28;20018;-70
2023/08/27 16:03:40;;;;;;;1.92;1.33;;;17.80;99.90;;;;;;5006638;28;20037;-71
2023/08/27 16:06:06;;;;;;;2.15;1.67;;;17.80;99.90;;;;;;5012447;28;20036;-70
2023/08/27 16:08:31;;;;;;;2.15;1.67;;;17.70;99.90;;;;;;5012657;28;20014;-71
2023/08/27 16:10:57;;;;;;;1.58;1.17;;;17.70;99.90;;;;;;5009662;28;20022;-71
2023/08/27 16:13:23;;;;;;;1.70;1.20;;;17.60;99.90;;;;;;5012457;28;20135;-70
2023/08/27 16:15:49;;;;;;;1.90;1.15;;;17.60;99.90;;;;;;4994813;28;20020;-70
2023/08/27 16:18:16;;;;;;;2.05;1.38;;;17.60;99.90;;;;;;5012713;28;20069;-71
2023/08/27 16:20:45;;;;;;;1.55;1.40;;;17.60;99.90;;;;;;5008279;28;20065;-71
2023/08/27 16:23:11;;;;;;;1.83;1.17;;;17.60;99.90;;;;;;5008375;28;20025;-71
2023/08/27 16:25:36;;;;;;;3.33;1.30;;;17.60;99.90;;;;;;5012103;28;20501;-70
2023/08/27 16:28:03;;;;;;;1.27;0.90;;;17.60;99.90;;;;;;5009919;28;20030;-71
2023/08/27 16:30:29;;;;;;;2.25;1.15;;;17.60;99.90;;;;;;5012124;28;20106;-70
2023/08/27 16:36:07;;;;;;;2.08;1.10;;;17.50;99.90;;;;;;5641440;22;21903;-72
2023/08/27 16:38:33;;;;;;;1.23;1.13;;;17.50;99.90;;;;;;4957210;28;20491;-70
2023/08/27 16:40:59;;;;;;;2.25;1.25;;;17.50;99.90;;;;;;4952339;28;20613;-71
2023/08/27 16:43:24;;;;;;;2.58;1.20;;;17.50;99.90;;;;;;4945074;29;20042;-70
2023/08/27 16:45:53;;;;;;;2.30;1.48;;;17.50;99.90;;;;;;4945517;29;20039;-70
2023/08/27 16:48:19;;;;;;;1.80;1.35;;;17.50;99.90;;;;;;4941512;28;20027;-71
2023/08/27 16:50:45;;;;;;;1.45;1.20;;;17.50;99.90;;;;;;4946056;28;20673;-71
2023/08/27 16:53:11;;;;;;;2.63;1.42;;;17.50;99.90;;;;;;4947489;29;20126;-71
2023/08/27 16:55:37;;;;;;;1.95;1.42;;;17.50;99.90;;;;;;4953374;28;20022;-71
2023/08/27 16:58:03;;;;;;;2.33;1.25;;;17.60;99.90;;;;;;4953514;28;20027;-71
2023/08/27 17:00:29;;;;;;;2.03;1.27;;;17.60;99.90;;;;;;4948756;28;20448;-71
2023/08/27 17:02:59;;;;;;;1.20;1.05;;;17.60;99.90;;;;;;4951440;28;20082;-71
2023/08/27 17:05:25;;;;;;;1.37;1.00;;;17.60;99.90;;;;;;4949005;29;20029;-71
2023/08/27 17:07:51;;;;;;;3.47;1.40;;;17.60;99.90;;;;;;4945457;28;20032;-71
2023/08/27 17:10:17;;;;;;;1.17;1.02;;;17.50;99.90;;;;;;4936401;29;20024;-71
2023/08/27 17:12:43;;;;;;;1.67;1.30;;;17.60;99.90;;;;;;4952805;28;20035;-71
2023/08/27 17:15:09;;;;;;;3.05;1.30;;;17.50;99.90;;;;;;4943457;28;20039;-71
2023/08/27 17:17:34;;;;;;;2.80;1.80;;;17.50;99.90;;;;;;4936278;29;20027;-71
2023/08/27 17:20:00;;;;;;;1.83;1.40;;;17.50;99.90;;;;;;4936479;29;20023;-71
2023/08/27 17:22:26;;;;;;;2.55;1.60;;;17.50;99.90;;;;;;4949765;29;20063;-71
2023/08/27 17:24:53;;;;;;;3.55;1.67;;;17.50;99.90;;;;;;4951103;28;20102;-71
2023/08/27 17:27:20;;;;;;;1.98;1.30;;;17.50;99.90;;;;;;4949924;29;20378;-71
2023/08/27 17:29:45;;;;;;;4.22;1.60;;;17.50;99.90;;;;;;4949537;29;20030;-71
2023/08/27 17:32:11;;;;;;;2.15;1.67;;;17.50;99.90;;;;;;4951448;29;20102;-71
2023/08/27 17:34:37;;;;;;;3.92;2.10;;;17.50;99.90;;;;;;4951801;29;20019;-71
2023/08/27 17:37:04;;;;;;;4.28;1.88;;;17.50;99.90;;;;;;4963053;28;20416;-71
2023/08/27 17:39:29;;;;;;;3.88;2.08;;;17.50;99.90;;;;;;4951991;28;20560;-71
2023/08/27 17:41:55;;;;;;;3.30;2.03;;;17.50;99.90;;;;;;4950674;29;20134;-71
2023/08/27 17:44:21;;;;;;;4.28;2.50;;;17.50;99.90;;;;;;4952745;29;20035;-71
2023/08/27 17:46:47;;;;;;;4.43;2.13;;;17.60;99.90;;;;;;4952446;28;20066;-71
2023/08/27 17:49:12;;;;;;;2.92;1.90;;;17.60;99.90;;;;;;4952733;28;20027;-71
2023/08/27 17:51:38;;;;;;;2.80;2.03;;;17.60;99.90;;;;;;4952399;28;20534;-71
2023/08/27 17:54:05;;;;;;;3.10;2.10;;;17.60;99.90;;;;;;4952063;28;20052;-71
2023/08/27 17:56:31;;;;;;;3.42;2.30;;;17.60;99.90;;;;;;4952068;28;20528;-71
2023/08/27 17:58:57;;;;;;;2.92;1.80;;;17.60;99.90;;;;;;4952890;29;20031;-71
2023/08/27 18:01:23;;;;;;;3.72;2.13;;;17.60;99.90;;;;;;4952253;28;20039;-72
2023/08/27 18:03:48;;;;;;;3.15;1.60;;;17.60;99.90;;;;;;4952571;28;20027;-71
2023/08/27 18:06:14;;;;;;;4.25;2.17;;;17.60;99.90;;;;;;4952505;29;20027;-71
2023/08/27 18:08:40;;;;;;;4.35;2.05;;;17.60;99.90;;;;;;4952272;28;20019;-71
2023/08/27 18:11:05;;;;;;;2.50;2.00;;;17.60;99.90;;;;;;4952709;28;20038;-71
2023/08/27 18:13:31;;;;;;;4.05;2.00;;;17.60;99.90;;;;;;4952372;29;20034;-71
2023/08/27 18:15:57;;;;;;;2.33;1.92;;;17.60;99.90;;;;;;4952125;29;20481;-71
2023/08/27 18:18:23;;;;;;;2.90;2.10;;;17.60;99.90;;;;;;4966553;28;20174;-71
2023/08/27 18:20:50;;;;;;;2.22;1.80;;;17.60;99.90;;;;;;4966710;28;20326;-71
2023/08/27 18:23:15;;;;;;;3.42;1.85;;;17.50;99.90;;;;;;4959452;28;20031;-71
2023/08/27 18:25:41;;;;;;;4.88;2.00;;;17.50;99.90;;;;;;4951442;28;20034;-71
2023/08/27 18:28:08;;;;;;;3.05;1.75;;;17.50;99.90;;;;;;4951957;29;20677;-71
2023/08/27 18:30:35;;;;;;;2.40;1.88;;;17.50;99.90;;;;;;4952115;28;20027;-71
2023/08/27 18:33:02;;;;;;;3.55;2.10;;;17.40;99.90;;;;;;4966665;28;20399;-71
2023/08/27 18:35:28;;;;;;;2.65;1.95;;;17.40;99.90;;;;;;4951957;28;20015;-71
2023/08/27 18:37:54;;;;;;;3.95;2.28;;;17.40;99.90;;;;;;4951729;28;20117;-71
2023/08/27 18:40:20;;;;;;;3.15;2.03;;;17.40;99.90;;;;;;4951876;29;20422;-71
2023/08/27 18:42:45;;;;;;;4.05;2.33;;;17.30;99.90;;;;;;4951724;29;20048;-71
2023/08/27 18:45:11;;;;;;;7.47;2.38;;;17.30;99.90;;;;;;4952444;28;20563;-71
2023/08/27 18:47:36;;;;;;;4.07;2.30;;;17.30;99.90;;;;;;4951557;29;20039;-72
2023/08/27 18:50:03;;;;;;;5.30;2.70;;;17.30;99.90;;;;;;4939739;29;20028;-72
2023/08/27 18:52:28;;;;;;;5.75;2.70;;;17.20;99.90;;;;;;4951620;29;20022;-72
2023/08/27 18:54:55;;;;;;;4.47;2.80;;;17.20;99.90;;;;;;4951813;29;20032;-72
2023/08/27 18:57:21;;;;;;;3.28;2.33;;;17.20;99.90;;;;;;4951271;29;20031;-72
2023/08/27 18:59:50;;;;;;;3.63;2.50;;;17.10;99.90;;;;;;4952060;29;20042;-72
2023/08/27 19:02:16;;;;;;;4.85;2.63;;;17.10;99.90;;;;;;4951277;29;20026;-72
2023/08/27 19:04:43;;;;;;;5.18;3.10;;;17.10;99.90;;;;;;4938441;29;20161;-72
2023/08/27 19:07:09;;;;;;;4.55;2.80;;;17.00;99.90;;;;;;4951165;28;20023;-72
2023/08/27 19:09:35;;;;;;;5.30;3.08;;;17.00;99.90;;;;;;4955471;29;20015;-72
2023/08/27 19:12:01;;;;;;;4.40;2.95;;;17.00;99.90;;;;;;4955415;29;20388;-72
2023/08/27 19:14:27;;;;;;;5.55;3.08;;;16.90;99.90;;;;;;4955167;29;20097;-72
2023/08/27 19:16:52;;;;;;;4.82;2.83;;;16.90;99.90;;;;;;4952555;29;20031;-72
2023/08/27 19:19:18;;;;;;;3.90;2.72;;;16.90;99.90;;;;;;4955486;28;20020;-72
2023/08/27 19:21:44;;;;;;;3.25;2.60;;;16.80;99.90;;;;;;4954950;29;20027;-71
2023/08/27 19:24:09;;;;;;;5.57;2.95;;;16.80;99.90;;;;;;4955500;29;20023;-72
2023/08/27 19:26:36;;;;;;;3.67;2.60;;;16.80;99.90;;;;;;4952677;29;20552;-71
2023/08/27 19:29:03;;;;;;;5.25;2.83;;;16.80;99.90;;;;;;4955422;29;20027;-72
2023/08/27 19:31:30;;;;;;;4.22;2.80;;;16.70;99.90;;;;;;4954840;29;20075;-72
2023/08/27 19:33:56;;;;;;;4.97;2.65;;;16.70;99.90;;;;;;4946482;29;20049;-72
2023/08/27 19:36:21;;;;;;;2.95;2.50;;;16.70;99.90;;;;;;4942879;29;20031;-72
2023/08/27 19:38:47;;;;;;;4.22;2.40;;;16.60;99.90;;;;;;4952407;28;20528;-71
2023/08/27 19:41:13;;;;;;;4.75;2.40;;;16.60;99.90;;;;;;4936970;29;20122;-72
2023/08/27 19:43:40;;;;;;;3.70;2.67;;;16.60;99.90;;;;;;4941354;29;20122;-72
2023/08/27 19:46:06;;;;;;;5.43;3.45;;;16.50;99.90;;;;;;4951987;29;20519;-72
2023/08/27 19:48:33;;;;;;;4.13;2.70;;;16.50;99.90;;;;;;4954457;29;20023;-72
2023/08/27 19:50:58;;;;;;;4.10;2.35;;;16.50;99.90;;;;;;4948093;29;20050;-72
2023/08/27 19:53:24;;;;;;;5.30;2.90;;;16.50;99.90;;;;;;4944466;29;20019;-72
2023/08/27 19:55:50;;;;;;;4.00;2.35;;;16.50;99.90;;;;;;4941154;29;20436;-72
2023/08/27 19:58:16;;;;;;;3.92;2.30;;;16.50;99.90;;;;;;4950856;29;20023;-71
2023/08/27 20:00:42;;;;;;;5.40;2.75;;;16.50;99.90;;;;;;4954595;29;20379;-72
2023/08/27 20:03:08;;;;;;;5.15;2.95;;;16.50;99.90;;;;;;4944778;29;20038;-72
2023/08/27 20:05:36;;;;;;;4.72;2.75;;;16.50;99.90;;;;;;4954445;29;20377;-72
2023/08/27 20:08:05;;;;;;;3.47;2.70;;;16.40;99.90;;;;;;4954103;29;20093;-72
2023/08/27 20:10:31;;;;;;;4.00;2.88;;;16.50;99.90;;;;;;4954497;29;20031;-72
2023/08/27 20:12:56;;;;;;;3.83;2.70;;;16.50;99.90;;;;;;4953895;29;20019;-72
2023/08/27 20:15:22;;;;;;;3.67;2.72;;;16.50;99.90;;;;;;4954393;29;20043;-71
2023/08/27 20:17:48;;;;;;;3.25;2.38;;;16.40;99.90;;;;;;4953763;29;20019;-72
2023/08/27 20:20:14;;;;;;;4.43;3.10;;;16.40;99.90;;;;;;4941446;29;20501;-72
2023/08/27 20:22:42;;;;;;;4.93;2.83;;;16.40;99.90;;;;;;4953705;29;20038;-71
2023/08/27 20:25:09;;;;;;;3.78;2.72;;;16.30;99.90;;;;;;4950361;29;20027;-71
2023/08/27 20:27:34;;;;;;;4.68;3.90;;;16.30;99.90;;;;;;4937478;28;20035;-71
2023/08/27 20:30:00;;;;;;;5.68;3.95;;;16.30;99.90;;;;;;4937194;29;20054;-71
2023/08/27 20:32:26;;;;;;;4.57;3.60;;;16.30;99.90;;;;;;4949615;29;20024;-72
2023/08/27 20:34:51;;;;;;;5.28;4.35;;;16.30;99.90;;;;;;4951010;29;20447;-71
2023/08/27 20:37:17;;;;;;;5.07;3.95;;;16.30;99.90;;;;;;4949442;29;20605;-72
2023/08/27 20:39:43;;;;;;;7.65;4.82;;;16.20;99.90;;;;;;4936807;29;20023;-72
2023/08/27 20:42:09;;;;;;;6.00;4.13;;;16.20;99.90;;;;;;4937595;29;20075;-72
2023/08/27 20:44:35;;;;;;;6.97;4.93;;;16.20;99.90;;;;;;4939746;29;20028;-72
2023/08/27 20:47:00;;;;;;;7.78;4.75;;;16.10;99.90;;;;;;4948009;29;20034;-72
2023/08/27 20:49:26;;;;;;;6.97;5.07;;;16.10;99.90;;;;;;4953198;29;20033;-72
2023/08/27 20:51:52;;;;;;;6.65;5.03;;;16.00;99.90;;;;;;4929312;29;20063;-72
2023/08/27 20:54:17;;;;;;;5.70;4.88;;;16.00;99.90;;;;;;4947721;29;20032;-72
2023/08/27 20:56:43;;;;;;;5.60;4.57;;;16.00;99.90;;;;;;4942779;29;20761;-72
2023/08/27 20:59:08;;;;;;;5.63;4.88;;;16.00;99.90;;;;;;4943921;29;20031;-72
2023/08/27 21:01:34;;;;;;;6.75;4.90;;;15.90;99.90;;;;;;4951477;29;20538;-72
2023/08/27 21:04:02;;;;;;;5.45;4.13;;;15.90;99.90;;;;;;4932723;29;20043;-71
2023/08/27 21:06:27;;;;;;;5.80;4.75;;;15.90;99.90;;;;;;4946059;29;20074;-72
2023/08/27 21:08:53;;;;;;;5.80;4.35;;;15.90;99.90;;;;;;4951099;29;20035;-71
2023/08/27 21:11:22;;;;;;;8.75;5.05;;;15.90;99.90;;;;;;4950232;28;20015;-71
2023/08/27 21:13:48;;;;;;;6.80;4.38;;;15.90;99.90;;;;;;4948355;28;20109;-72
2023/08/27 21:16:14;;;;;;;8.07;5.00;;;16.00;99.90;;;;;;4947475;29;20494;-72
2023/08/27 21:18:39;;;;;;;7.60;5.20;;;16.00;99.90;;;;;;4950881;29;20027;-72
2023/08/27 21:21:05;;;;;;;6.43;5.03;;;16.00;99.90;;;;;;4931063;29;20499;-72
2023/08/27 21:23:31;;;;;;;5.70;4.50;;;16.00;99.90;;;;;;4950746;29;20043;-72
2023/08/27 21:25:56;;;;;;;5.53;4.60;;;16.00;99.90;;;;;;4952763;29;20061;-71
2023/08/27 21:28:22;;;;;;;6.25;4.78;;;16.00;99.90;;;;;;4952857;28;20132;-72
2023/08/27 21:30:48;;;;;;;8.57;4.80;;;16.00;99.90;;;;;;4952549;28;20050;-72
2023/08/27 21:33:14;;;;;;;6.45;4.85;;;15.90;99.90;;;;;;4952738;29;20024;-71
2023/08/27 21:35:41;;;;;;;6.63;4.13;;;15.90;99.90;;;;;;4952099;29;20031;-72
2023/08/27 21:38:08;;;;;;;6.68;4.70;;;15.90;99.90;;;;;;4961477;28;20050;-72
2023/08/27 21:40:39;;;;;;;5.80;4.45;;;15.90;99.90;;;;;;4958257;28;20039;-72
2023/08/27 21:43:08;;;;;;;6.38;4.55;;;15.90;99.90;;;;;;4960034;28;20035;-72
2023/08/27 21:45:34;;;;;;;5.90;4.55;;;15.90;99.90;;;;;;4966935;28;20037;-71
2023/08/27 21:48:00;;;;;;;6.35;4.13;;;15.90;99.90;;;;;;4958426;28;20050;-72
2023/08/27 21:50:27;;;;;;;6.00;4.40;;;15.90;99.90;;;;;;4964396;28;20033;-72
2023/08/27 21:52:53;;;;;;;6.30;4.20;;;15.90;99.90;;;;;;4966300;28;20030;-71
2023/08/27 21:55:19;;;;;;;6.82;4.30;;;15.90;99.90;;;;;;4941612;28;20343;-71
2023/08/27 21:57:45;;;;;;;7.20;4.07;;;15.90;99.90;;;;;;4959679;28;20050;-72
2023/08/27 22:00:11;;;;;;;5.60;3.58;;;15.90;99.90;;;;;;4960790;28;20400;-72
2023/08/27 22:02:40;;;;;;;5.13;3.70;;;15.90;99.90;;;;;;4961374;28;20027;-72
2023/08/27 22:05:06;;;;;;;6.00;3.78;;;15.90;99.90;;;;;;4966609;28;20035;-71
2023/08/27 22:07:33;;;;;;;5.60;3.90;;;16.00;99.90;;;;;;4960763;28;20031;-72
2023/08/27 22:09:59;;;;;;;6.72;4.13;;;16.00;99.90;;;;;;4958455;28;20019;-71
2023/08/27 22:12:26;;;;;;;5.07;3.85;;;16.00;99.90;;;;;;4964488;28;20027;-71
2023/08/27 22:14:53;;;;;;;7.07;3.92;;;16.00;99.90;;;;;;4965527;28;20030;-71
2023/08/27 22:17:19;;;;;;;4.72;3.33;;;16.00;99.90;;;;;;4957705;28;20034;-71
2023/08/27 22:19:45;;;;;;;3.75;3.13;;;16.00;99.90;;;;;;4961144;28;20024;-71
2023/08/27 22:22:11;;;;;;;4.75;3.58;;;16.00;99.90;;;;;;4965688;28;20394;-71
2023/08/27 22:24:37;;;;;;;4.63;3.13;;;16.00;99.90;;;;;;4961561;28;20696;-71
2023/08/27 22:27:03;;;;;;;5.68;3.88;;;16.00;99.90;;;;;;4956715;28;20027;-71
2023/08/27 22:29:29;;;;;;;5.40;3.83;;;16.10;99.90;;;;;;4947038;29;20015;-71
2023/08/27 22:31:55;;;;;;;4.45;3.10;;;16.10;99.90;;;;;;4965237;28;20548;-71
2023/08/27 22:34:20;;;;;;;5.80;3.17;;;16.10;99.90;;;;;;4957953;28;20023;-71
2023/08/27 22:36:46;;;;;;;5.25;3.00;;;16.10;99.90;;;;;;4960136;28;20047;-71
2023/08/27 22:39:12;;;;;;;4.40;2.85;;;16.10;99.90;;;;;;4952077;29;20035;-71
2023/08/27 22:41:38;;;;;;;5.40;3.20;;;16.10;99.90;;;;;;4951812;28;20065;-71
2023/08/27 22:44:05;;;;;;;4.97;2.80;;;16.00;99.90;;;;;;4951856;29;20489;-71
2023/08/27 22:46:31;;;;;;;3.85;2.78;;;16.00;99.90;;;;;;4951753;29;20434;-71
2023/08/27 22:48:57;;;;;;;6.47;3.03;;;16.00;99.90;;;;;;4951950;29;20062;-71
2023/08/27 22:51:24;;;;;;;5.18;2.83;;;16.00;99.90;;;;;;4951937;29;20027;-71
2023/08/27 22:53:50;;;;;;;5.97;3.65;;;16.00;99.90;;;;;;4951599;29;20059;-71
2023/08/27 22:56:16;;;;;;;3.08;2.72;;;16.00;99.90;;;;;;4951922;29;20520;-71
2023/08/27 22:58:41;;;;;;;5.13;2.90;;;16.00;99.90;;;;;;4951647;29;20027;-71
2023/08/27 23:01:09;;;;;;;4.75;3.00;;;16.10;99.90;;;;;;4952148;29;20047;-71
2023/08/27 23:03:35;;;;;;;6.68;3.10;;;16.10;99.90;;;;;;4951630;29;20027;-71
2023/08/27 23:06:01;;;;;;;4.35;3.25;;;16.00;99.90;;;;;;4952079;29;20110;-71
2023/08/27 23:08:27;;;;;;;5.38;3.42;;;16.00;99.90;;;;;;4951420;29;20106;-71
2023/08/27 23:10:52;;;;;;;5.60;3.40;;;16.00;99.90;;;;;;4951776;29;20070;-71
2023/08/27 23:13:18;;;;;;;4.60;3.03;;;16.00;99.90;;;;;;4951500;29;20108;-71
2023/08/27 23:15:43;;;;;;;5.38;3.28;;;16.00;99.90;;;;;;4951629;29;20031;-71
2023/08/27 23:18:10;;;;;;;5.45;3.50;;;16.00;99.90;;;;;;4951440;29;20031;-71
2023/08/27 23:20:36;;;;;;;4.55;3.42;;;15.90;99.90;;;;;;4935368;29;20020;-71
2023/08/27 23:23:03;;;;;;;6.47;3.10;;;15.90;99.90;;;;;;4951535;29;20031;-71
2023/08/27 23:25:29;;;;;;;4.00;2.90;;;15.90;99.90;;;;;;4946994;29;20028;-71
2023/08/27 23:28:00;;;;;;;5.32;3.33;;;15.90;99.90;;;;;;4951457;29;20027;-71
2023/08/27 23:30:26;;;;;;;6.13;3.45;;;15.90;99.90;;;;;;4950153;29;20051;-70
2023/08/27 23:32:51;;;;;;;6.35;3.40;;;15.80;99.90;;;;;;4951646;29;20031;-71
2023/08/27 23:35:17;;;;;;;6.93;3.85;;;15.80;99.90;;;;;;4952023;29;20028;-72
2023/08/27 23:37:42;;;;;;;5.03;3.47;;;15.80;99.90;;;;;;4950815;29;20401;-71
2023/08/27 23:40:09;;;;;;;7.07;4.43;;;15.80;99.90;;;;;;4952057;29;20019;-71
2023/08/27 23:42:35;;;;;;;6.38;3.70;;;15.80;99.90;;;;;;4951162;29;20027;-71
2023/08/27 23:45:01;;;;;;;6.30;3.53;;;15.70;99.90;;;;;;4951571;29;20038;-71